createdAt,value
2023-04-18T00:01:25.130Z,3.65
2023-04-18T00:03:52.179Z,3.70
2023-04-18T00:06:19.503Z,3.72
2023-04-18T00:08:46.696Z,2.97
2023-04-18T00:11:13.346Z,4.18
2023-04-18T00:13:40.832Z,4.32
2023-04-18T00:16:13.357Z,4.28
2023-04-18T00:18:40.371Z,3.70
2023-04-18T00:21:08.839Z,4.40
2023-04-18T00:23:36.097Z,4.10
2023-04-18T00:26:03.093Z,3.92
2023-04-18T00:28:29.924Z,4.07
2023-04-18T00:30:56.715Z,3.53
2023-04-18T00:33:23.627Z,3.92
2023-04-18T00:35:50.322Z,3.92
2023-04-18T00:38:17.056Z,3.53
2023-04-18T00:40:43.802Z,3.83
2023-04-18T00:43:13.606Z,3.00
2023-04-18T00:45:40.291Z,4.18
2023-04-18T00:48:07.075Z,3.55
2023-04-18T00:50:33.826Z,3.83
2023-04-18T00:53:00.696Z,3.40
2023-04-18T00:55:27.367Z,4.88
2023-04-18T00:57:54.143Z,4.13
2023-04-18T01:00:21.042Z,3.70
2023-04-18T01:02:49.903Z,3.40
2023-04-18T01:05:18.597Z,3.83
2023-04-18T01:07:45.621Z,3.90
2023-04-18T01:10:12.417Z,3.95
2023-04-18T01:12:39.834Z,3.35
2023-04-18T01:15:07.278Z,3.80
2023-04-18T01:17:36.803Z,3.38
2023-04-18T01:20:06.368Z,3.67
2023-04-18T01:22:33.756Z,3.47
2023-04-18T01:25:00.600Z,3.88
2023-04-18T01:27:27.333Z,3.50
2023-04-18T01:29:54.986Z,4.00
2023-04-18T01:32:22.331Z,3.58
2023-04-18T01:34:49.126Z,3.63
2023-04-18T01:37:16.004Z,3.53
2023-04-18T01:39:42.694Z,3.75
2023-04-18T01:42:09.391Z,3.67
2023-04-18T01:44:36.306Z,3.72
2023-04-18T01:47:05.824Z,3.47
2023-04-18T01:49:32.448Z,3.95
2023-04-18T01:51:59.254Z,3.63
2023-04-18T01:54:25.887Z,3.55
2023-04-18T01:56:52.575Z,3.50
2023-04-18T01:59:19.262Z,4.03
2023-04-18T02:01:46.263Z,4.18
2023-04-18T02:04:13.231Z,4.03
2023-04-18T02:06:40.205Z,3.08
2023-04-18T02:09:06.839Z,3.58
2023-04-18T02:11:33.484Z,3.80
2023-04-18T02:14:00.175Z,3.25
2023-04-18T02:16:26.891Z,4.47
2023-04-18T02:18:53.824Z,4.15
2023-04-18T02:21:22.089Z,4.10
2023-04-18T02:23:48.979Z,4.20
2023-04-18T02:26:16.275Z,3.60
2023-04-18T02:28:43.116Z,4.28
2023-04-18T02:31:14.896Z,3.88
2023-04-18T02:33:47.256Z,3.95
2023-04-18T02:36:13.892Z,5.13
2023-04-18T02:38:41.784Z,3.63
2023-04-18T02:41:08.485Z,4.20
2023-04-18T02:43:35.192Z,4.05
2023-04-18T02:46:01.962Z,4.75
2023-04-18T02:48:28.686Z,3.55
2023-04-18T02:51:03.417Z,3.97
2023-04-18T02:53:30.318Z,4.47
2023-04-18T02:55:57.144Z,3.65
2023-04-18T02:58:24.082Z,3.70
2023-04-18T03:00:53.037Z,4.43
2023-04-18T03:03:19.888Z,4.05
2023-04-18T03:05:46.634Z,5.40
2023-04-18T03:08:13.249Z,4.20
2023-04-18T03:10:40.213Z,3.75
2023-04-18T03:13:06.903Z,5.88
2023-04-18T03:15:33.901Z,3.40
2023-04-18T03:18:00.738Z,4.32
2023-04-18T03:20:27.426Z,4.35
2023-04-18T03:22:54.026Z,3.97
2023-04-18T03:25:22.551Z,4.40
2023-04-18T03:27:49.153Z,4.15
2023-04-18T03:30:17.596Z,4.35
2023-04-18T03:32:44.379Z,4.03
2023-04-18T03:35:11.339Z,3.67
2023-04-18T03:37:38.242Z,4.38
2023-04-18T03:40:05.680Z,4.70
2023-04-18T03:42:32.411Z,3.83
2023-04-18T03:44:59.112Z,4.60
2023-04-18T03:47:31.610Z,3.95
2023-04-18T03:49:58.769Z,3.90
2023-04-18T03:52:25.844Z,3.85
2023-04-18T03:54:53.344Z,3.65
2023-04-18T03:57:20.105Z,4.10
2023-04-18T03:59:48.003Z,4.55
2023-04-18T04:02:14.891Z,4.63
2023-04-18T04:04:41.770Z,5.15
2023-04-18T04:07:08.440Z,4.05
2023-04-18T04:09:35.047Z,4.53
2023-04-18T04:12:03.270Z,4.38
2023-04-18T04:14:29.888Z,4.15
2023-04-18T04:16:56.584Z,4.18
2023-04-18T04:19:23.212Z,4.30
2023-04-18T04:21:50.118Z,4.93
2023-04-18T04:24:17.006Z,5.18
2023-04-18T04:26:43.657Z,4.88
2023-04-18T04:29:10.993Z,4.10
2023-04-18T04:31:37.806Z,4.45
2023-04-18T04:34:05.073Z,4.45
2023-04-18T04:36:33.626Z,4.85
2023-04-18T04:39:02.193Z,4.50
2023-04-18T04:41:29.590Z,4.78
2023-04-18T04:43:56.341Z,4.78
2023-04-18T04:46:26.274Z,4.43
2023-04-18T04:48:54.855Z,4.88
2023-04-18T04:51:21.641Z,5.28
2023-04-18T04:53:48.248Z,5.88
2023-04-18T04:56:14.975Z,4.32
2023-04-18T04:58:41.782Z,4.68
2023-04-18T05:03:56.665Z,5.80
2023-04-18T05:06:24.406Z,4.65
2023-04-18T05:08:51.214Z,5.53
2023-04-18T05:11:18.064Z,4.85
2023-04-18T05:13:44.915Z,4.70
2023-04-18T05:16:12.268Z,4.75
2023-04-18T05:18:40.491Z,5.85
2023-04-18T05:21:07.715Z,4.80
2023-04-18T05:23:37.497Z,5.55
2023-04-18T05:26:05.726Z,4.85
2023-04-18T05:28:32.979Z,6.50
2023-04-18T05:31:04.824Z,5.22
2023-04-18T05:33:32.237Z,4.65
2023-04-18T05:35:59.803Z,5.20
2023-04-18T05:38:26.774Z,6.45
2023-04-18T05:40:55.730Z,4.93
2023-04-18T05:43:22.776Z,4.78
2023-04-18T05:45:49.435Z,4.47
2023-04-18T05:48:16.662Z,4.72
2023-04-18T05:50:43.260Z,5.05
2023-04-18T05:53:09.936Z,5.22
2023-04-18T05:55:37.043Z,5.25
2023-04-18T05:58:03.707Z,5.07
2023-04-18T06:00:31.161Z,5.13
2023-04-18T06:02:57.944Z,4.30
2023-04-18T06:05:24.937Z,5.88
2023-04-18T06:07:51.664Z,4.68
2023-04-18T06:10:18.338Z,5.30
2023-04-18T06:12:45.097Z,5.28
2023-04-18T06:15:11.956Z,4.78
2023-04-18T06:17:38.750Z,5.35
2023-04-18T06:20:06.611Z,6.43
2023-04-18T06:22:36.453Z,4.70
2023-04-18T06:25:03.535Z,4.50
2023-04-18T06:27:31.896Z,5.88
2023-04-18T06:29:59.181Z,4.07
2023-04-18T06:32:26.142Z,4.25
2023-04-18T06:34:53.304Z,4.93
2023-04-18T06:37:20.288Z,4.97
2023-04-18T06:39:47.222Z,4.53
2023-04-18T06:42:14.318Z,5.07
2023-04-18T06:44:43.051Z,4.47
2023-04-18T06:47:09.914Z,4.63
2023-04-18T06:49:36.678Z,3.88
2023-04-18T06:52:04.163Z,4.00
2023-04-18T06:54:30.966Z,4.40
2023-04-18T06:56:57.613Z,4.30
2023-04-18T06:59:24.235Z,4.05
2023-04-18T07:01:51.290Z,3.85
2023-04-18T07:04:18.606Z,3.90
2023-04-18T07:06:45.969Z,4.45
2023-04-18T07:09:12.773Z,5.10
2023-04-18T07:11:40.717Z,4.47
2023-04-18T07:14:07.491Z,4.03
2023-04-18T07:16:34.907Z,4.90
2023-04-18T07:19:01.517Z,3.70
2023-04-18T07:21:28.442Z,4.28
2023-04-18T07:23:55.420Z,4.43
2023-04-18T07:26:22.287Z,4.60
2023-04-18T07:28:49.456Z,4.22
2023-04-18T07:31:16.801Z,3.75
2023-04-18T07:33:43.862Z,3.42
2023-04-18T07:36:10.931Z,4.20
2023-04-18T07:38:37.874Z,5.78
2023-04-18T07:41:04.984Z,3.95
2023-04-18T07:43:31.791Z,4.15
2023-04-18T07:45:58.570Z,3.80
2023-04-18T07:48:25.527Z,4.43
2023-04-18T07:50:52.661Z,4.28
2023-04-18T07:53:19.630Z,3.95
2023-04-18T07:55:46.800Z,3.50
2023-04-18T07:58:13.681Z,3.60
2023-04-18T08:00:44.910Z,4.65
2023-04-18T08:03:15.123Z,4.40
2023-04-18T08:05:42.935Z,4.10
2023-04-18T08:08:11.632Z,4.50
2023-04-18T08:10:38.531Z,3.78
2023-04-18T08:13:05.307Z,5.22
2023-04-18T08:15:33.057Z,4.05
2023-04-18T08:18:01.089Z,3.85
2023-04-18T08:20:28.249Z,4.28
2023-04-18T08:25:24.568Z,3.95
2023-04-18T08:27:54.165Z,3.10
2023-04-18T08:30:21.249Z,3.65
2023-04-18T08:32:48.126Z,4.05
2023-04-18T08:35:14.849Z,3.28
2023-04-18T08:37:41.727Z,3.78
2023-04-18T08:40:09.057Z,3.70
2023-04-18T08:42:36.104Z,3.20
2023-04-18T08:45:02.988Z,3.90
2023-04-18T08:47:30.218Z,3.78
2023-04-18T08:49:57.622Z,3.10
2023-04-18T08:52:25.008Z,5.05
2023-04-18T08:54:52.022Z,3.25
2023-04-18T08:57:28.567Z,3.83
2023-04-18T08:59:55.563Z,3.25
2023-04-18T09:02:23.522Z,3.20
2023-04-18T09:04:53.337Z,3.53
2023-04-18T09:07:21.289Z,3.58
2023-04-18T09:09:53.063Z,4.35
2023-04-18T09:12:25.432Z,3.17
2023-04-18T09:14:56.646Z,3.17
2023-04-18T09:17:43.912Z,3.35
2023-04-18T09:20:11.568Z,3.45
2023-04-18T09:22:48.184Z,2.85
2023-04-18T09:25:26.134Z,3.20
2023-04-18T09:27:53.731Z,3.33
2023-04-18T09:30:38.071Z,3.63
2023-04-18T09:33:08.059Z,4.00
2023-04-18T09:35:34.938Z,3.20
2023-04-18T09:38:01.904Z,3.05
2023-04-18T09:40:28.796Z,3.38
2023-04-18T09:42:55.625Z,3.20
2023-04-18T09:45:23.761Z,5.30
2023-04-18T09:47:51.612Z,3.92
2023-04-18T09:50:20.354Z,3.40
2023-04-18T09:52:48.049Z,3.65
2023-04-18T09:55:17.745Z,3.75
2023-04-18T09:57:48.717Z,4.20
2023-04-18T10:00:24.179Z,4.63
2023-04-18T10:03:10.934Z,3.17
2023-04-18T10:05:40.628Z,4.07
2023-04-18T10:08:08.479Z,3.25
2023-04-18T10:10:38.546Z,3.97
2023-04-18T10:13:06.827Z,2.70
2023-04-18T10:15:33.578Z,2.72
2023-04-18T10:18:05.836Z,2.80
2023-04-18T10:20:35.191Z,2.20
2023-04-18T10:23:40.229Z,2.78
2023-04-18T10:26:10.954Z,2.63
2023-04-18T10:29:01.751Z,3.05
2023-04-18T10:31:29.420Z,2.17
2023-04-18T10:36:30.299Z,2.58
2023-04-18T10:39:21.261Z,3.90
2023-04-18T10:41:51.885Z,2.72
2023-04-18T10:44:21.959Z,2.20
2023-04-18T10:46:48.616Z,2.88
2023-04-18T10:49:53.097Z,2.30
2023-04-18T10:52:19.767Z,2.67
2023-04-18T10:54:58.386Z,3.38
2023-04-18T10:57:26.624Z,2.63
2023-04-18T10:59:54.956Z,2.30
2023-04-18T11:02:25.934Z,4.22
2023-04-18T11:05:06.691Z,3.25
2023-04-18T11:07:42.380Z,2.58
2023-04-18T11:10:09.906Z,2.47
2023-04-18T11:12:38.623Z,1.73
2023-04-18T11:15:25.633Z,3.13
2023-04-18T11:18:03.644Z,1.70
2023-04-18T11:20:38.115Z,2.05
2023-04-18T11:23:04.718Z,3.28
2023-04-18T11:25:34.566Z,2.65
2023-04-18T11:28:24.908Z,2.40
2023-04-18T11:30:52.066Z,2.30
2023-04-18T11:33:18.760Z,2.67
2023-04-18T11:35:46.448Z,2.40
2023-04-18T11:38:14.553Z,2.90
2023-04-18T11:40:52.988Z,2.95
2023-04-18T11:43:24.726Z,2.80
2023-04-18T11:45:55.873Z,2.85
2023-04-18T11:48:23.172Z,3.03
2023-04-18T11:50:50.036Z,3.08
2023-04-18T11:53:32.566Z,3.20
2023-04-18T11:55:59.952Z,4.43
2023-04-18T11:58:34.107Z,5.68
2023-04-18T12:01:21.799Z,4.55
2023-04-18T12:04:05.408Z,4.95
2023-04-18T12:06:49.316Z,4.60
2023-04-18T12:09:16.835Z,3.60
2023-04-18T12:11:50.119Z,5.97
2023-04-18T12:14:21.748Z,6.03
2023-04-18T12:16:51.881Z,6.95
2023-04-18T12:19:20.638Z,8.18
2023-04-18T12:22:00.409Z,6.25
2023-04-18T12:24:32.472Z,6.25
2023-04-18T12:26:59.589Z,7.85
2023-04-18T12:29:27.966Z,7.47
2023-04-18T12:31:55.058Z,8.32
2023-04-18T12:34:21.912Z,6.25
2023-04-18T12:36:48.747Z,6.07
2023-04-18T12:39:15.582Z,6.65
2023-04-18T12:41:42.237Z,6.55
2023-04-18T12:44:12.908Z,7.45
2023-04-18T12:46:39.797Z,5.97
2023-04-18T12:49:06.429Z,7.10
2023-04-18T12:51:33.116Z,7.18
2023-04-18T12:54:00.324Z,7.10
2023-04-18T12:56:27.014Z,6.72
2023-04-18T12:58:53.671Z,7.60
2023-04-18T13:01:21.189Z,7.15
2023-04-18T13:03:56.386Z,7.45
2023-04-18T13:06:27.403Z,6.38
2023-04-18T13:08:54.086Z,6.43
2023-04-18T13:11:22.493Z,7.18
2023-04-18T13:13:49.188Z,6.45
2023-04-18T13:16:16.287Z,7.47
2023-04-18T13:18:43.306Z,7.60
2023-04-18T13:21:09.922Z,7.50
2023-04-18T13:23:36.637Z,8.25
2023-04-18T13:26:03.623Z,7.35
2023-04-18T13:28:30.542Z,8.82
2023-04-18T13:30:57.203Z,7.18
2023-04-18T13:33:23.915Z,8.40
2023-04-18T13:35:50.713Z,8.38
2023-04-18T13:38:17.858Z,7.28
2023-04-18T13:40:44.537Z,7.63
2023-04-18T13:43:13.158Z,7.75
2023-04-18T13:45:39.914Z,7.25
2023-04-18T13:48:06.976Z,7.38
2023-04-18T13:50:33.844Z,6.32
2023-04-18T13:53:00.804Z,6.47
2023-04-18T13:55:30.629Z,6.93
2023-04-18T13:57:57.485Z,6.00
2023-04-18T14:00:24.204Z,6.82
2023-04-18T14:02:51.299Z,5.75
2023-04-18T14:05:24.126Z,4.53
2023-04-18T14:07:50.710Z,4.45
2023-04-18T14:10:17.367Z,5.05
2023-04-18T14:12:44.079Z,3.70
2023-04-18T14:15:11.485Z,3.92
2023-04-18T14:17:38.256Z,3.83
2023-04-18T14:20:05.924Z,3.05
2023-04-18T14:22:32.620Z,3.15
2023-04-18T14:24:59.375Z,3.40
2023-04-18T14:27:26.294Z,2.30
2023-04-18T14:29:53.015Z,3.00
2023-04-18T14:32:19.632Z,2.88
2023-04-18T14:34:46.350Z,2.78
2023-04-18T14:37:14.993Z,2.65
2023-04-18T14:39:42.270Z,2.70
2023-04-18T14:42:09.058Z,2.65
2023-04-18T14:44:35.835Z,2.72
2023-04-18T14:47:02.673Z,2.60
2023-04-18T14:49:34.066Z,2.38
2023-04-18T14:52:00.805Z,2.70
2023-04-18T14:54:27.502Z,2.08
2023-04-18T14:56:55.674Z,2.75
2023-04-18T14:59:22.338Z,2.58
2023-04-18T15:01:49.029Z,2.15
2023-04-18T15:04:16.174Z,2.55
2023-04-18T15:06:43.546Z,2.08
2023-04-18T15:09:10.843Z,2.33
2023-04-18T15:11:38.082Z,2.35
2023-04-18T15:14:04.661Z,2.72
2023-04-18T15:16:32.099Z,2.10
2023-04-18T15:19:00.547Z,3.47
2023-04-18T15:21:27.372Z,2.70
2023-04-18T15:23:54.092Z,2.90
2023-04-18T15:26:21.158Z,2.45
2023-04-18T15:28:47.908Z,2.88
2023-04-18T15:31:16.729Z,3.00
2023-04-18T15:33:43.488Z,2.70
2023-04-18T15:36:10.153Z,3.42
2023-04-18T15:38:42.858Z,2.47
2023-04-18T15:41:09.542Z,2.72
2023-04-18T15:43:36.177Z,2.28
2023-04-18T15:46:03.806Z,2.58
2023-04-18T15:48:34.252Z,2.70
2023-04-18T15:51:01.501Z,2.65
2023-04-18T15:53:28.653Z,2.45
2023-04-18T15:55:55.501Z,2.42
2023-04-18T15:58:22.308Z,2.65
2023-04-18T16:00:52.284Z,3.60
2023-04-18T16:03:19.010Z,2.45
2023-04-18T16:05:47.861Z,2.47
2023-04-18T16:08:14.516Z,2.38
2023-04-18T16:10:41.622Z,2.40
2023-04-18T16:13:08.300Z,2.65
2023-04-18T16:15:37.652Z,2.78
2023-04-18T16:18:04.488Z,2.70
2023-04-18T16:20:33.408Z,2.72
2023-04-18T16:23:00.549Z,3.17
2023-04-18T16:25:33.678Z,4.13
2023-04-18T16:28:00.709Z,3.10
2023-04-18T16:30:27.332Z,3.30
2023-04-18T16:32:54.633Z,2.22
2023-04-18T16:35:21.358Z,3.70
2023-04-18T16:37:48.750Z,2.90
2023-04-18T16:40:15.502Z,3.08
2023-04-18T16:42:42.166Z,2.33
2023-04-18T16:45:17.666Z,2.13
2023-04-18T16:47:44.745Z,2.92
2023-04-18T16:50:11.542Z,2.38
2023-04-18T16:52:38.236Z,2.45
2023-04-18T16:55:05.270Z,2.92
2023-04-18T16:57:32.024Z,2.38
2023-04-18T17:00:01.890Z,2.45
2023-04-18T17:02:28.758Z,1.85
2023-04-18T17:04:55.669Z,2.20
2023-04-18T17:07:22.661Z,2.08
2023-04-18T17:09:49.697Z,1.92
2023-04-18T17:12:16.409Z,2.30
2023-04-18T17:14:43.081Z,2.55
2023-04-18T17:17:09.703Z,4.50
2023-04-18T17:19:36.795Z,2.78
2023-04-18T17:22:03.508Z,2.50
2023-04-18T17:24:30.118Z,2.40
2023-04-18T17:26:58.016Z,2.17
2023-04-18T17:29:25.351Z,2.80
2023-04-18T17:31:53.277Z,2.70
2023-04-18T17:34:20.431Z,3.03
2023-04-18T17:36:47.346Z,2.90
2023-04-18T17:39:16.453Z,2.38
2023-04-18T17:41:43.283Z,3.35
2023-04-18T17:44:10.485Z,2.65
2023-04-18T17:46:37.735Z,2.83
2023-04-18T17:49:04.875Z,2.83
2023-04-18T17:51:31.547Z,3.33
2023-04-18T17:53:58.404Z,3.15
2023-04-18T17:56:25.192Z,3.08
2023-04-18T17:58:56.714Z,2.65
2023-04-18T18:01:24.925Z,2.58
2023-04-18T18:03:53.786Z,3.00
2023-04-18T18:06:21.108Z,3.35
2023-04-18T18:08:47.876Z,3.25
2023-04-18T18:11:14.975Z,2.65
2023-04-18T18:13:41.714Z,2.92
2023-04-18T18:16:09.116Z,2.28
2023-04-18T18:18:36.489Z,3.28
2023-04-18T18:21:03.224Z,3.25
2023-04-18T18:23:29.868Z,3.00
2023-04-18T18:25:56.669Z,2.47
2023-04-18T18:28:23.357Z,3.60
2023-04-18T18:30:50.195Z,2.97
2023-04-18T18:33:17.152Z,3.10
2023-04-18T18:35:44.019Z,3.47
2023-04-18T18:38:10.685Z,3.33
2023-04-18T18:40:37.650Z,2.72
2023-04-18T18:43:04.342Z,2.95
2023-04-18T18:45:31.016Z,3.25
2023-04-18T18:47:57.756Z,3.15
2023-04-18T18:50:24.403Z,3.13
2023-04-18T18:52:51.105Z,3.83
2023-04-18T18:55:17.882Z,3.20
2023-04-18T18:57:47.953Z,2.88
2023-04-18T19:00:14.843Z,2.75
2023-04-18T19:02:41.784Z,2.85
2023-04-18T19:05:09.191Z,3.10
2023-04-18T19:07:35.834Z,3.00
2023-04-18T19:10:03.765Z,2.97
2023-04-18T19:12:30.494Z,3.03
2023-04-18T19:14:57.160Z,3.45
2023-04-18T19:17:24.925Z,3.22
2023-04-18T19:19:52.841Z,3.05
2023-04-18T19:22:19.587Z,3.25
2023-04-18T19:24:46.312Z,3.00
2023-04-18T19:27:13.371Z,3.67
2023-04-18T19:29:40.092Z,3.85
2023-04-18T19:32:07.179Z,3.55
2023-04-18T19:34:33.841Z,3.42
2023-04-18T19:37:01.390Z,4.20
2023-04-18T19:39:28.338Z,4.03
2023-04-18T19:41:55.047Z,2.90
2023-04-18T19:44:25.055Z,3.05
2023-04-18T19:46:51.776Z,3.47
2023-04-18T19:49:18.498Z,4.03
2023-04-18T19:51:45.369Z,3.95
2023-04-18T19:54:12.368Z,3.42
2023-04-18T19:56:39.111Z,3.83
2023-04-18T19:59:06.192Z,4.18
2023-04-18T20:01:32.899Z,3.80
2023-04-18T20:04:00.672Z,3.08
2023-04-18T20:06:28.435Z,3.67
2023-04-18T20:08:55.491Z,3.53
2023-04-18T20:11:22.400Z,3.60
2023-04-18T20:13:49.445Z,4.35
2023-04-18T20:16:17.002Z,3.63
2023-04-18T20:18:45.728Z,3.90
2023-04-18T20:21:12.392Z,3.78
2023-04-18T20:23:41.756Z,4.00
2023-04-18T20:26:09.287Z,3.97
2023-04-18T20:28:38.005Z,3.67
2023-04-18T20:31:05.049Z,4.43
2023-04-18T20:33:31.765Z,3.17
2023-04-18T20:35:59.041Z,4.50
2023-04-18T20:38:29.710Z,3.88
2023-04-18T20:41:00.839Z,4.40
2023-04-18T20:43:28.088Z,4.00
2023-04-18T20:45:57.730Z,3.85
2023-04-18T20:48:24.549Z,3.60
2023-04-18T20:50:51.677Z,3.75
2023-04-18T20:53:21.045Z,3.55
2023-04-18T20:55:48.428Z,3.38
2023-04-18T20:58:15.063Z,3.65
2023-04-18T21:00:41.886Z,4.10
2023-04-18T21:03:08.953Z,3.25
2023-04-18T21:05:36.134Z,2.85
2023-04-18T21:08:02.871Z,3.45
2023-04-18T21:10:29.530Z,3.50
2023-04-18T21:12:56.168Z,3.25
2023-04-18T21:15:22.975Z,3.72
2023-04-18T21:17:51.217Z,3.50
2023-04-18T21:20:18.341Z,3.92
2023-04-18T21:22:44.985Z,3.25
2023-04-18T21:25:11.933Z,2.88
2023-04-18T21:27:38.637Z,3.38
2023-04-18T21:30:06.475Z,3.38
2023-04-18T21:32:33.468Z,2.92
2023-04-18T21:35:01.245Z,3.20
2023-04-18T21:37:27.854Z,3.60
2023-04-18T21:39:54.819Z,2.92
2023-04-18T21:42:21.464Z,2.83
2023-04-18T21:44:48.078Z,2.70
2023-04-18T21:47:14.758Z,3.42
2023-04-18T21:49:41.999Z,3.30
2023-04-18T21:52:09.327Z,2.53
2023-04-18T21:54:36.006Z,3.03
2023-04-18T21:57:02.894Z,3.17
2023-04-18T21:59:29.981Z,3.33
2023-04-18T22:01:56.686Z,2.97
2023-04-18T22:04:26.669Z,3.45
2023-04-18T22:06:54.306Z,4.35
2023-04-18T22:09:21.465Z,3.50
2023-04-18T22:11:48.570Z,2.58
2023-04-18T22:14:20.131Z,3.15
2023-04-18T22:16:46.783Z,3.17
2023-04-18T22:19:14.254Z,2.50
2023-04-18T22:21:40.943Z,2.83
2023-04-18T22:24:08.424Z,2.83
2023-04-18T22:26:35.504Z,3.65
2023-04-18T22:29:02.161Z,3.15
2023-04-18T22:31:29.123Z,3.20
2023-04-18T22:33:56.020Z,3.08
2023-04-18T22:36:22.665Z,2.75
2023-04-18T22:38:52.382Z,2.97
2023-04-18T22:41:19.063Z,2.83
2023-04-18T22:43:45.823Z,3.47
2023-04-18T22:46:12.547Z,3.65
2023-04-18T22:48:39.246Z,2.92
2023-04-18T22:51:06.466Z,3.20
2023-04-18T22:53:33.080Z,3.08
2023-04-18T22:55:59.747Z,3.28
2023-04-18T22:58:26.484Z,2.95
2023-04-18T23:00:53.229Z,3.20
2023-04-18T23:03:20.106Z,2.72
2023-04-18T23:05:46.837Z,2.60
2023-04-18T23:08:13.560Z,2.95
2023-04-18T23:10:40.260Z,3.13
2023-04-18T23:13:16.216Z,3.08
2023-04-18T23:15:43.254Z,2.88
2023-04-18T23:18:10.063Z,2.78
2023-04-18T23:20:37.895Z,2.90
2023-04-18T23:23:04.610Z,2.92
2023-04-18T23:25:34.533Z,2.95
2023-04-18T23:28:01.426Z,3.22
2023-04-18T23:30:28.162Z,2.75
2023-04-18T23:32:55.085Z,3.33
2023-04-18T23:35:21.788Z,3.47
2023-04-18T23:37:54.022Z,3.40
2023-04-18T23:40:20.861Z,2.80
2023-04-18T23:42:47.645Z,3.17
2023-04-18T23:45:14.271Z,3.28
2023-04-18T23:47:41.046Z,3.58
2023-04-18T23:50:08.991Z,2.83
2023-04-18T23:52:35.646Z,2.83
2023-04-18T23:55:02.488Z,3.35
2023-04-18T23:57:29.199Z,3.13
2023-04-18T23:59:55.857Z,3.25
